sensor_id;sensor_type;location;lat;lon;timestamp;pressure;altitude;pressure_sealevel;temperature;humidity
45541;BME280;31265;49.680;8.608;2023-01-28T00:00:10;101395.88;;;2.19;100.00
45541;BME280;31265;49.680;8.608;2023-01-28T00:02:39;101397.41;;;2.20;100.00
45541;BME280;31265;49.680;8.608;2023-01-28T00:05:07;101390.88;;;2.18;100.00
45541;BME280;31265;49.680;8.608;2023-01-28T00:07:36;101395.31;;;2.15;100.00
45541;BME280;31265;49.680;8.608;2023-01-28T00:10:05;101384.75;;;2.23;100.00
45541;BME280;31265;49.680;8.608;2023-01-28T00:12:36;101389.66;;;2.19;100.00
45541;BME280;31265;49.680;8.608;2023-01-28T00:15:07;101386.91;;;2.19;100.00
45541;BME280;31265;49.680;8.608;2023-01-28T00:17:36;101387.81;;;2.30;100.00
45541;BME280;31265;49.680;8.608;2023-01-28T00:20:05;101383.22;;;2.22;100.00
45541;BME280;31265;49.680;8.608;2023-01-28T00:22:34;101384.19;;;2.19;100.00
45541;BME280;31265;49.680;8.608;2023-01-28T00:25:02;101388.75;;;2.27;100.00
45541;BME280;31265;49.680;8.608;2023-01-28T00:27:31;101385.84;;;2.31;100.00
45541;BME280;31265;49.680;8.608;2023-01-28T00:30:02;101376.31;;;2.26;100.00
45541;BME280;31265;49.680;8.608;2023-01-28T00:32:32;101368.84;;;2.27;100.00
45541;BME280;31265;49.680;8.608;2023-01-28T00:35:00;101372.88;;;2.31;100.00
45541;BME280;31265;49.680;8.608;2023-01-28T00:37:29;101373.63;;;2.32;100.00
45541;BME280;31265;49.680;8.608;2023-01-28T00:39:58;101371.16;;;2.34;100.00
45541;BME280;31265;49.680;8.608;2023-01-28T00:42:27;101365.97;;;2.36;100.00
45541;BME280;31265;49.680;8.608;2023-01-28T00:44:55;101375.22;;;2.39;100.00
45541;BME280;31265;49.680;8.608;2023-01-28T00:47:25;101369.34;;;2.25;100.00
45541;BME280;31265;49.680;8.608;2023-01-28T00:49:56;101372.06;;;2.25;100.00
45541;BME280;31265;49.680;8.608;2023-01-28T00:52:24;101370.63;;;2.30;100.00
45541;BME280;31265;49.680;8.608;2023-01-28T00:54:53;101375.56;;;2.26;100.00
45541;BME280;31265;49.680;8.608;2023-01-28T00:57:23;101370.56;;;2.24;100.00
45541;BME280;31265;49.680;8.608;2023-01-28T00:59:52;101371.56;;;2.27;100.00
45541;BME280;31265;49.680;8.608;2023-01-28T01:02:21;101372.47;;;2.18;100.00
45541;BME280;31265;49.680;8.608;2023-01-28T01:04:50;101390.22;;;2.23;100.00
45541;BME280;31265;49.680;8.608;2023-01-28T01:07:30;101378.31;;;2.26;100.00
45541;BME280;31265;49.680;8.608;2023-01-28T01:10:10;101381.16;;;2.17;100.00
45541;BME280;31265;49.680;8.608;2023-01-28T01:12:39;101380.88;;;2.14;100.00
45541;BME280;31265;49.680;8.608;2023-01-28T01:15:09;101381.72;;;2.21;100.00
45541;BME280;31265;49.680;8.608;2023-01-28T01:17:38;101387.09;;;2.15;100.00
45541;BME280;31265;49.680;8.608;2023-01-28T01:20:11;101387.09;;;2.15;100.00
45541;BME280;31265;49.680;8.608;2023-01-28T01:22:42;101389.44;;;2.22;100.00
45541;BME280;31265;49.680;8.608;2023-01-28T01:25:12;101382.06;;;2.28;100.00
45541;BME280;31265;49.680;8.608;2023-01-28T01:27:44;101390.91;;;2.38;100.00
45541;BME280;31265;49.680;8.608;2023-01-28T01:30:16;101395.25;;;2.30;100.00
45541;BME280;31265;49.680;8.608;2023-01-28T01:32:47;101404.16;;;2.25;100.00
45541;BME280;31265;49.680;8.608;2023-01-28T01:35:16;101397.88;;;2.19;100.00
45541;BME280;31265;49.680;8.608;2023-01-28T01:37:46;101390.63;;;2.15;100.00
45541;BME280;31265;49.680;8.608;2023-01-28T01:40:15;101390.72;;;2.06;100.00
45541;BME280;31265;49.680;8.608;2023-01-28T01:42:43;101391.56;;;2.12;100.00
45541;BME280;31265;49.680;8.608;2023-01-28T01:45:14;101403.47;;;2.09;100.00
45541;BME280;31265;49.680;8.608;2023-01-28T01:47:46;101401.06;;;2.17;100.00
45541;BME280;31265;49.680;8.608;2023-01-28T01:50:20;101401.75;;;2.12;100.00
45541;BME280;31265;49.680;8.608;2023-01-28T01:52:55;101399.22;;;2.08;100.00
45541;BME280;31265;49.680;8.608;2023-01-28T01:55:26;101400.44;;;2.07;100.00
45541;BME280;31265;49.680;8.608;2023-01-28T01:58:00;101405.91;;;2.07;100.00
45541;BME280;31265;49.680;8.608;2023-01-28T02:00:29;101407.44;;;2.08;100.00
45541;BME280;31265;49.680;8.608;2023-01-28T02:02:58;101404.22;;;2.10;100.00
45541;BME280;31265;49.680;8.608;2023-01-28T02:05:26;101400.66;;;2.04;100.00
45541;BME280;31265;49.680;8.608;2023-01-28T02:07:58;101400.25;;;2.11;100.00
45541;BME280;31265;49.680;8.608;2023-01-28T02:10:48;101412.53;;;2.15;100.00
45541;BME280;31265;49.680;8.608;2023-01-28T02:13:21;101412.63;;;2.06;100.00
45541;BME280;31265;49.680;8.608;2023-01-28T02:15:51;101408.19;;;2.09;100.00
45541;BME280;31265;49.680;8.608;2023-01-28T02:18:20;101416.41;;;2.09;100.00
45541;BME280;31265;49.680;8.608;2023-01-28T02:21:07;101418.72;;;1.96;100.00
45541;BME280;31265;49.680;8.608;2023-01-28T02:23:45;101408.91;;;1.89;100.00
45541;BME280;31265;49.680;8.608;2023-01-28T02:26:42;101422.59;;;1.89;100.00
45541;BME280;31265;49.680;8.608;2023-01-28T02:29:22;101412.38;;;1.89;100.00
45541;BME280;31265;49.680;8.608;2023-01-28T02:31:59;101422.50;;;1.83;100.00
45541;BME280;31265;49.680;8.608;2023-01-28T02:34:35;101417.78;;;1.84;100.00
45541;BME280;31265;49.680;8.608;2023-01-28T02:37:10;101414.19;;;1.78;100.00
45541;BME280;31265;49.680;8.608;2023-01-28T02:39:44;101423.72;;;1.82;100.00
45541;BME280;31265;49.680;8.608;2023-01-28T02:42:18;101414.19;;;1.78;100.00
45541;BME280;31265;49.680;8.608;2023-01-28T02:44:48;101415.81;;;1.69;100.00
45541;BME280;31265;49.680;8.608;2023-01-28T02:47:16;101413.53;;;1.83;100.00
45541;BME280;31265;49.680;8.608;2023-01-28T02:50:07;101416.75;;;1.81;100.00
45541;BME280;31265;49.680;8.608;2023-01-28T02:52:45;101418.16;;;1.77;100.00
45541;BME280;31265;49.680;8.608;2023-01-28T02:55:38;101416.03;;;1.66;100.00
45541;BME280;31265;49.680;8.608;2023-01-28T02:58:15;101421.56;;;1.71;100.00
45541;BME280;31265;49.680;8.608;2023-01-28T03:00:52;101415.53;;;1.67;100.00
45541;BME280;31265;49.680;8.608;2023-01-28T03:03:27;101416.09;;;1.71;100.00
45541;BME280;31265;49.680;8.608;2023-01-28T03:06:01;101418.56;;;1.55;100.00
45541;BME280;31265;49.680;8.608;2023-01-28T03:08:38;101415.91;;;1.60;100.00
45541;BME280;31265;49.680;8.608;2023-01-28T03:11:27;101419.97;;;1.50;100.00
45541;BME280;31265;49.680;8.608;2023-01-28T03:14:15;101421.31;;;1.55;100.00
45541;BME280;31265;49.680;8.608;2023-01-28T03:17:05;101416.03;;;1.51;100.00
45541;BME280;31265;49.680;8.608;2023-01-28T03:19:53;101421.97;;;1.49;100.00
45541;BME280;31265;49.680;8.608;2023-01-28T03:22:40;101421.38;;;1.60;100.00
45541;BME280;31265;49.680;8.608;2023-01-28T03:25:28;101427.22;;;1.53;100.00
45541;BME280;31265;49.680;8.608;2023-01-28T03:28:20;101435.25;;;1.57;100.00
45541;BME280;31265;49.680;8.608;2023-01-28T03:31:09;101427.81;;;1.57;100.00
45541;BME280;31265;49.680;8.608;2023-01-28T03:34:01;101432.63;;;1.62;100.00
45541;BME280;31265;49.680;8.608;2023-01-28T03:36:49;101431.13;;;1.61;100.00
45541;BME280;31265;49.680;8.608;2023-01-28T03:39:36;101433.47;;;1.54;100.00
45541;BME280;31265;49.680;8.608;2023-01-28T03:42:10;101439.22;;;1.56;100.00
45541;BME280;31265;49.680;8.608;2023-01-28T03:45:03;101445.09;;;1.63;100.00
45541;BME280;31265;49.680;8.608;2023-01-28T03:47:34;101449.22;;;1.59;100.00
45541;BME280;31265;49.680;8.608;2023-01-28T03:50:07;101458.19;;;1.59;100.00
45541;BME280;31265;49.680;8.608;2023-01-28T03:52:44;101465.44;;;1.62;100.00
45541;BME280;31265;49.680;8.608;2023-01-28T03:55:24;101462.63;;;1.57;100.00
45541;BME280;31265;49.680;8.608;2023-01-28T03:57:53;101451.84;;;1.53;100.00
45541;BME280;31265;49.680;8.608;2023-01-28T04:00:22;101451.69;;;1.57;100.00
45541;BME280;31265;49.680;8.608;2023-01-28T04:02:51;101458.66;;;1.72;100.00
45541;BME280;31265;49.680;8.608;2023-01-28T04:05:21;101461.66;;;1.60;100.00
45541;BME280;31265;49.680;8.608;2023-01-28T04:07:53;101460.63;;;1.57;100.00
45541;BME280;31265;49.680;8.608;2023-01-28T04:10:42;101457.22;;;1.62;100.00
45541;BME280;31265;49.680;8.608;2023-01-28T04:13:25;101465.44;;;1.62;100.00
45541;BME280;31265;49.680;8.608;2023-01-28T04:15:54;101465.81;;;1.70;100.00
45541;BME280;31265;49.680;8.608;2023-01-28T04:18:23;101466.41;;;1.59;100.00
45541;BME280;31265;49.680;8.608;2023-01-28T04:20:56;101468.66;;;1.61;100.00
45541;BME280;31265;49.680;8.608;2023-01-28T04:23:26;101471.13;;;1.74;100.00
45541;BME280;31265;49.680;8.608;2023-01-28T04:25:55;101458.09;;;1.83;100.00
45541;BME280;31265;49.680;8.608;2023-01-28T04:28:24;101461.09;;;1.70;100.00
45541;BME280;31265;49.680;8.608;2023-01-28T04:30:53;101456.78;;;1.64;100.00
45541;BME280;31265;49.680;8.608;2023-01-28T04:33:30;101460.56;;;1.66;100.00
45541;BME280;31265;49.680;8.608;2023-01-28T04:36:32;101461.66;;;1.60;100.00
45541;BME280;31265;49.680;8.608;2023-01-28T04:39:19;101466.97;;;1.63;100.00
45541;BME280;31265;49.680;8.608;2023-01-28T04:42:16;101469.59;;;1.72;100.00
45541;BME280;31265;49.680;8.608;2023-01-28T04:45:03;101467.50;;;1.82;100.00
45541;BME280;31265;49.680;8.608;2023-01-28T04:47:50;101473.00;;;1.67;100.00
45541;BME280;31265;49.680;8.608;2023-01-28T04:50:40;101469.50;;;1.67;100.00
45541;BME280;31265;49.680;8.608;2023-01-28T04:53:19;101468.47;;;1.64;100.00
45541;BME280;31265;49.680;8.608;2023-01-28T04:55:56;101472.03;;;1.70;100.00
45541;BME280;31265;49.680;8.608;2023-01-28T04:58:28;101467.22;;;1.65;100.00
45541;BME280;31265;49.680;8.608;2023-01-28T05:01:01;101467.44;;;1.62;100.00
45541;BME280;31265;49.680;8.608;2023-01-28T05:03:32;101469.03;;;1.54;100.00
45541;BME280;31265;49.680;8.608;2023-01-28T05:06:04;101468.00;;;1.66;100.00
45541;BME280;31265;49.680;8.608;2023-01-28T05:08:40;101476.09;;;1.60;100.00
45541;BME280;31265;49.680;8.608;2023-01-28T05:11:12;101469.72;;;1.63;100.00
45541;BME280;31265;49.680;8.608;2023-01-28T05:13:42;101473.19;;;1.64;100.00
45541;BME280;31265;49.680;8.608;2023-01-28T05:16:14;101479.78;;;1.57;100.00
45541;BME280;31265;49.680;8.608;2023-01-28T05:18:42;101481.47;;;1.55;100.00
45541;BME280;31265;49.680;8.608;2023-01-28T05:21:15;101483.28;;;1.58;100.00
45541;BME280;31265;49.680;8.608;2023-01-28T05:23:49;101479.03;;;1.71;100.00
45541;BME280;31265;49.680;8.608;2023-01-28T05:26:17;101484.31;;;1.60;100.00
45541;BME280;31265;49.680;8.608;2023-01-28T05:28:46;101488.19;;;1.68;100.00
45541;BME280;31265;49.680;8.608;2023-01-28T05:31:14;101489.13;;;1.65;100.00
45541;BME280;31265;49.680;8.608;2023-01-28T05:33:42;101491.31;;;1.61;100.00
45541;BME280;31265;49.680;8.608;2023-01-28T05:36:16;101492.91;;;1.68;100.00
45541;BME280;31265;49.680;8.608;2023-01-28T05:38:45;101491.31;;;1.61;100.00
45541;BME280;31265;49.680;8.608;2023-01-28T05:41:17;101492.72;;;1.57;100.00
45541;BME280;31265;49.680;8.608;2023-01-28T05:43:48;101499.50;;;1.61;100.00
45541;BME280;31265;49.680;8.608;2023-01-28T05:46:26;101502.25;;;1.61;100.00
45541;BME280;31265;49.680;8.608;2023-01-28T05:49:05;101508.56;;;1.67;100.00
45541;BME280;31265;49.680;8.608;2023-01-28T05:51:52;101511.22;;;1.77;100.00
45541;BME280;31265;49.680;8.608;2023-01-28T05:54:21;101519.59;;;1.58;100.00
45541;BME280;31265;49.680;8.608;2023-01-28T05:56:51;101511.13;;;1.56;100.00
45541;BME280;31265;49.680;8.608;2023-01-28T05:59:21;101504.31;;;1.52;100.00
45541;BME280;31265;49.680;8.608;2023-01-28T06:01:51;101513.94;;;1.47;100.00
45541;BME280;31265;49.680;8.608;2023-01-28T06:04:20;101521.69;;;1.48;100.00
45541;BME280;31265;49.680;8.608;2023-01-28T06:06:50;101521.47;;;1.52;100.00
45541;BME280;31265;49.680;8.608;2023-01-28T06:09:23;101528.25;;;1.42;100.00
45541;BME280;31265;49.680;8.608;2023-01-28T06:11:54;101531.28;;;1.44;100.00
45541;BME280;31265;49.680;8.608;2023-01-28T06:14:24;101539.97;;;1.57;100.00
45541;BME280;31265;49.680;8.608;2023-01-28T06:17:10;101540.94;;;1.69;100.00
45541;BME280;31265;49.680;8.608;2023-01-28T06:20:01;101536.41;;;1.66;100.00
45541;BME280;31265;49.680;8.608;2023-01-28T06:22:31;101538.94;;;1.55;100.00
45541;BME280;31265;49.680;8.608;2023-01-28T06:25:01;101548.84;;;1.52;100.00
45541;BME280;31265;49.680;8.608;2023-01-28T06:27:30;101550.88;;;1.42;100.00
45541;BME280;31265;49.680;8.608;2023-01-28T06:29:58;101556.97;;;1.61;100.00
45541;BME280;31265;49.680;8.608;2023-01-28T06:32:29;101562.06;;;1.68;100.00
45541;BME280;31265;49.680;8.608;2023-01-28T06:34:58;101559.16;;;1.72;100.00
45541;BME280;31265;49.680;8.608;2023-01-28T06:37:27;101556.59;;;1.54;100.00
45541;BME280;31265;49.680;8.608;2023-01-28T06:39:56;101554.66;;;1.45;100.00
45541;BME280;31265;49.680;8.608;2023-01-28T06:42:26;101569.22;;;1.51;100.00
45541;BME280;31265;49.680;8.608;2023-01-28T06:44:56;101570.06;;;1.57;100.00
45541;BME280;31265;49.680;8.608;2023-01-28T06:47:24;101569.28;;;1.42;100.00
45541;BME280;31265;49.680;8.608;2023-01-28T06:49:52;101564.97;;;1.50;100.00
45541;BME280;31265;49.680;8.608;2023-01-28T06:52:21;101576.19;;;1.52;100.00
45541;BME280;31265;49.680;8.608;2023-01-28T06:54:52;101580.31;;;1.47;100.00
45541;BME280;31265;49.680;8.608;2023-01-28T06:57:20;101575.59;;;1.48;100.00
45541;BME280;31265;49.680;8.608;2023-01-28T06:59:49;101579.94;;;1.40;100.00
45541;BME280;31265;49.680;8.608;2023-01-28T07:02:19;101586.94;;;1.56;100.00
45541;BME280;31265;49.680;8.608;2023-01-28T07:04:49;101587.81;;;1.62;100.00
45541;BME280;31265;49.680;8.608;2023-01-28T07:07:17;101582.69;;;1.55;100.00
45541;BME280;31265;49.680;8.608;2023-01-28T07:09:45;101583.75;;;1.57;100.00
45541;BME280;31265;49.680;8.608;2023-01-28T07:12:14;101589.03;;;1.46;100.00
45541;BME280;31265;49.680;8.608;2023-01-28T07:14:42;101593.72;;;1.45;100.00
45541;BME280;31265;49.680;8.608;2023-01-28T07:17:14;101591.56;;;1.49;100.00
45541;BME280;31265;49.680;8.608;2023-01-28T07:19:43;101590.16;;;1.54;100.00
45541;BME280;31265;49.680;8.608;2023-01-28T07:22:12;101595.41;;;1.43;100.00
45541;BME280;31265;49.680;8.608;2023-01-28T07:24:40;101592.66;;;1.43;100.00
45541;BME280;31265;49.680;8.608;2023-01-28T07:27:08;101600.88;;;1.43;100.00
45541;BME280;31265;49.680;8.608;2023-01-28T07:29:40;101592.81;;;1.48;100.00
45541;BME280;31265;49.680;8.608;2023-01-28T07:32:13;101597.06;;;1.64;100.00
45541;BME280;31265;49.680;8.608;2023-01-28T07:34:43;101591.09;;;1.51;100.00
45541;BME280;31265;49.680;8.608;2023-01-28T07:37:11;101587.53;;;1.60;100.00
45541;BME280;31265;49.680;8.608;2023-01-28T07:39:39;101591.09;;;1.51;100.00
45541;BME280;31265;49.680;8.608;2023-01-28T07:42:08;101594.63;;;1.66;100.00
45541;BME280;31265;49.680;8.608;2023-01-28T07:44:38;101589.34;;;1.78;100.00
45541;BME280;31265;49.680;8.608;2023-01-28T07:47:10;101595.75;;;1.75;100.00
45541;BME280;31265;49.680;8.608;2023-01-28T07:49:42;101598.91;;;1.97;100.00
45541;BME280;31265;49.680;8.608;2023-01-28T07:52:12;101599.47;;;1.86;100.00
45541;BME280;31265;49.680;8.608;2023-01-28T07:54:41;101599.75;;;1.88;100.00
45541;BME280;31265;49.680;8.608;2023-01-28T07:57:10;101602.88;;;1.96;100.00
45541;BME280;31265;49.680;8.608;2023-01-28T07:59:38;101599.28;;;1.90;100.00
45541;BME280;31265;49.680;8.608;2023-01-28T08:02:10;101613.25;;;1.92;100.00
45541;BME280;31265;49.680;8.608;2023-01-28T08:04:45;101608.44;;;1.87;100.00
45541;BME280;31265;49.680;8.608;2023-01-28T08:07:15;101612.22;;;1.89;100.00
45541;BME280;31265;49.680;8.608;2023-01-28T08:09:50;101618.66;;;2.01;100.00
45541;BME280;31265;49.680;8.608;2023-01-28T08:12:21;101621.28;;;1.96;100.00
45541;BME280;31265;49.680;8.608;2023-01-28T08:14:49;101631.09;;;2.02;100.00
45541;BME280;31265;49.680;8.608;2023-01-28T08:17:19;101631.97;;;2.08;100.00
45541;BME280;31265;49.680;8.608;2023-01-28T08:19:52;101630.06;;;2.14;100.00
45541;BME280;31265;49.680;8.608;2023-01-28T08:22:24;101633.47;;;2.09;100.00
45541;BME280;31265;49.680;8.608;2023-01-28T08:24:53;101634.78;;;2.14;100.00
45541;BME280;31265;49.680;8.608;2023-01-28T08:27:21;101628.66;;;2.19;100.00
45541;BME280;31265;49.680;8.608;2023-01-28T08:29:50;101630.28;;;2.26;100.00
45541;BME280;31265;49.680;8.608;2023-01-28T08:32:19;101632.34;;;2.16;100.00
45541;BME280;31265;49.680;8.608;2023-01-28T08:34:48;101636.31;;;2.30;100.00
45541;BME280;31265;49.680;8.608;2023-01-28T08:37:17;101636.59;;;2.32;100.00
45541;BME280;31265;49.680;8.608;2023-01-28T08:39:47;101647.81;;;2.34;100.00
45541;BME280;31265;49.680;8.608;2023-01-28T08:42:17;101636.13;;;2.48;100.00
45541;BME280;31265;49.680;8.608;2023-01-28T08:44:47;101636.50;;;2.41;100.00
45541;BME280;31265;49.680;8.608;2023-01-28T08:47:15;101639.31;;;2.62;100.00
45541;BME280;31265;49.680;8.608;2023-01-28T08:49:43;101634.97;;;2.55;100.00
45541;BME280;31265;49.680;8.608;2023-01-28T08:52:11;101636.69;;;2.52;100.00
45541;BME280;31265;49.680;8.608;2023-01-28T08:54:40;101638.91;;;2.69;100.00
45541;BME280;31265;49.680;8.608;2023-01-28T08:57:09;101637.56;;;2.79;100.00
45541;BME280;31265;49.680;8.608;2023-01-28T08:59:38;101636.00;;;2.72;100.00
45541;BME280;31265;49.680;8.608;2023-01-28T09:02:12;101637.03;;;2.75;100.00
45541;BME280;31265;49.680;8.608;2023-01-28T09:04:57;101641.84;;;2.80;100.00
45541;BME280;31265;49.680;8.608;2023-01-28T09:07:25;101635.41;;;2.83;100.00
45541;BME280;31265;49.680;8.608;2023-01-28T09:09:55;101638.16;;;2.83;100.00
45541;BME280;31265;49.680;8.608;2023-01-28T09:12:24;101636.91;;;2.84;100.00
45541;BME280;31265;49.680;8.608;2023-01-28T09:14:52;101631.19;;;3.03;100.00
45541;BME280;31265;49.680;8.608;2023-01-28T09:17:22;101643.81;;;2.94;100.00
45541;BME280;31265;49.680;8.608;2023-01-28T09:19:51;101643.81;;;2.94;100.00
45541;BME280;31265;49.680;8.608;2023-01-28T09:22:19;101656.38;;;2.86;100.00
45541;BME280;31265;49.680;8.608;2023-01-28T09:24:49;101646.91;;;3.02;100.00
45541;BME280;31265;49.680;8.608;2023-01-28T09:27:19;101652.97;;;2.91;100.00
45541;BME280;31265;49.680;8.608;2023-01-28T09:29:49;101656.91;;;3.05;100.00
45541;BME280;31265;49.680;8.608;2023-01-28T09:32:17;101661.53;;;2.99;100.00
45541;BME280;31265;49.680;8.608;2023-01-28T09:34:45;101669.72;;;3.14;100.00
45541;BME280;31265;49.680;8.608;2023-01-28T09:37:15;101671.09;;;3.04;100.00
45541;BME280;31265;49.680;8.608;2023-01-28T09:39:44;101674.50;;;2.98;100.00
45541;BME280;31265;49.680;8.608;2023-01-28T09:42:23;101678.38;;;3.07;100.00
45541;BME280;31265;49.680;8.608;2023-01-28T09:45:02;101670.41;;;3.09;100.00
45541;BME280;31265;49.680;8.608;2023-01-28T09:47:41;101681.66;;;3.11;100.00
45541;BME280;31265;49.680;8.608;2023-01-28T09:50:14;101681.94;;;3.13;100.00
45541;BME280;31265;49.680;8.608;2023-01-28T09:52:44;101681.66;;;3.11;100.00
45541;BME280;31265;49.680;8.608;2023-01-28T09:55:18;101674.41;;;3.08;100.00
45541;BME280;31265;49.680;8.608;2023-01-28T09:57:50;101676.75;;;3.15;100.00
45541;BME280;31265;49.680;8.608;2023-01-28T10:00:22;101673.44;;;3.11;100.00
45541;BME280;31265;49.680;8.608;2023-01-28T10:03:02;101678.47;;;3.12;100.00
45541;BME280;31265;49.680;8.608;2023-01-28T10:05:42;101672.66;;;3.25;100.00
45541;BME280;31265;49.680;8.608;2023-01-28T10:08:25;101682.16;;;3.09;100.00
45541;BME280;31265;49.680;8.608;2023-01-28T10:11:05;101682.66;;;3.28;100.00
45541;BME280;31265;49.680;8.608;2023-01-28T10:13:44;101692.13;;;3.27;100.00
45541;BME280;31265;49.680;8.608;2023-01-28T10:16:28;101687.50;;;3.18;100.00
45541;BME280;31265;49.680;8.608;2023-01-28T10:19:02;101688.94;;;3.14;100.00
45541;BME280;31265;49.680;8.608;2023-01-28T10:21:38;101687.03;;;3.20;100.00
45541;BME280;31265;49.680;8.608;2023-01-28T10:24:14;101690.75;;;3.17;100.00
45541;BME280;31265;49.680;8.608;2023-01-28T10:26:44;101680.63;;;3.08;100.00
45541;BME280;31265;49.680;8.608;2023-01-28T10:29:16;101691.16;;;3.30;100.00
45541;BME280;31265;49.680;8.608;2023-01-28T10:31:51;101693.84;;;3.25;100.00
45541;BME280;31265;49.680;8.608;2023-01-28T10:34:21;101684.56;;;3.22;100.00
45541;BME280;31265;49.680;8.608;2023-01-28T10:36:49;101697.75;;;3.38;100.00
45541;BME280;31265;49.680;8.608;2023-01-28T10:39:21;101697.22;;;3.34;100.00
45541;BME280;31265;49.680;8.608;2023-01-28T10:41:54;101689.97;;;3.52;100.00
45541;BME280;31265;49.680;8.608;2023-01-28T10:44:33;101697.91;;;3.50;100.00
45541;BME280;31265;49.680;8.608;2023-01-28T10:47:11;101695.84;;;3.44;100.00
45541;BME280;31265;49.680;8.608;2023-01-28T10:49:45;101699.63;;;3.67;100.00
45541;BME280;31265;49.680;8.608;2023-01-28T10:52:16;101709.44;;;3.54;100.00
45541;BME280;31265;49.680;8.608;2023-01-28T10:54:44;101699.69;;;3.73;100.00
45541;BME280;31265;49.680;8.608;2023-01-28T10:57:16;101700.03;;;3.60;100.00
45541;BME280;31265;49.680;8.608;2023-01-28T10:59:46;101700.31;;;3.83;100.00
45541;BME280;31265;49.680;8.608;2023-01-28T11:02:25;101705.41;;;3.70;100.00
45541;BME280;31265;49.680;8.608;2023-01-28T11:05:00;101703.41;;;3.70;100.00
45541;BME280;31265;49.680;8.608;2023-01-28T11:07:29;101697.31;;;3.81;100.00
45541;BME280;31265;49.680;8.608;2023-01-28T11:09:58;101703.31;;;3.85;100.00
45541;BME280;31265;49.680;8.608;2023-01-28T11:12:28;101700.66;;;3.70;100.00
45541;BME280;31265;49.680;8.608;2023-01-28T11:14:59;101711.00;;;3.60;100.00
45541;BME280;31265;49.680;8.608;2023-01-28T11:17:31;101710.47;;;3.56;100.00
45541;BME280;31265;49.680;8.608;2023-01-28T11:20:09;101709.03;;;3.61;100.00
45541;BME280;31265;49.680;8.608;2023-01-28T11:22:42;101700.59;;;3.64;100.00
45541;BME280;31265;49.680;8.608;2023-01-28T11:25:14;101710.94;;;3.55;100.00
45541;BME280;31265;49.680;8.608;2023-01-28T11:27:46;101712.19;;;3.74;100.00
45541;BME280;31265;49.680;8.608;2023-01-28T11:30:22;101709.03;;;3.61;100.00
45541;BME280;31265;49.680;8.608;2023-01-28T11:33:03;101711.56;;;3.64;100.00
45541;BME280;31265;49.680;8.608;2023-01-28T11:35:33;101706.03;;;3.59;100.00
45541;BME280;31265;49.680;8.608;2023-01-28T11:38:02;101703.91;;;3.69;100.00
45541;BME280;31265;49.680;8.608;2023-01-28T11:40:30;101692.38;;;3.64;100.00
45541;BME280;31265;49.680;8.608;2023-01-28T11:42:59;101696.25;;;3.78;100.00
45541;BME280;31265;49.680;8.608;2023-01-28T11:45:35;101701.69;;;3.73;100.00
45541;BME280;31265;49.680;8.608;2023-01-28T11:48:22;101690.91;;;3.69;100.00
45541;BME280;31265;49.680;8.608;2023-01-28T11:50:59;101699.09;;;3.84;100.00
45541;BME280;31265;49.680;8.608;2023-01-28T11:53:53;101697.22;;;3.55;100.00
45541;BME280;31265;49.680;8.608;2023-01-28T11:56:39;101694.75;;;3.57;100.00
45541;BME280;31265;49.680;8.608;2023-01-28T11:59:27;101679.72;;;3.52;100.00
45541;BME280;31265;49.680;8.608;2023-01-28T12:02:03;101686.72;;;3.53;100.00
45541;BME280;31265;49.680;8.608;2023-01-28T12:04:55;101685.56;;;3.60;100.00
45541;BME280;31265;49.680;8.608;2023-01-28T12:07:38;101690.00;;;3.37;100.00
45541;BME280;31265;49.680;8.608;2023-01-28T12:10:14;101682.97;;;3.71;100.00
45541;BME280;31265;49.680;8.608;2023-01-28T12:12:56;101675.66;;;3.68;100.00
45541;BME280;31265;49.680;8.608;2023-01-28T12:16:02;101680.88;;;3.45;100.00
45541;BME280;31265;49.680;8.608;2023-01-28T12:18:56;101675.56;;;3.57;100.00
45541;BME280;31265;49.680;8.608;2023-01-28T12:21:39;101682.66;;;3.49;100.00
45541;BME280;31265;49.680;8.608;2023-01-28T12:24:22;101672.94;;;3.48;100.00
45541;BME280;31265;49.680;8.608;2023-01-28T12:27:00;101675.22;;;3.49;100.00
45541;BME280;31265;49.680;8.608;2023-01-28T12:29:42;101672.94;;;3.27;100.00
45541;BME280;31265;49.680;8.608;2023-01-28T12:32:30;101675.91;;;3.09;100.00
45541;BME280;31265;49.680;8.608;2023-01-28T12:35:22;101667.31;;;3.01;100.00
45541;BME280;31265;49.680;8.608;2023-01-28T12:38:06;101669.19;;;3.10;100.00
45541;BME280;31265;49.680;8.608;2023-01-28T12:40:49;101661.03;;;2.80;100.00
45541;BME280;31265;49.680;8.608;2023-01-28T12:43:26;101658.50;;;3.12;100.00
45541;BME280;31265;49.680;8.608;2023-01-28T12:46:03;101658.91;;;3.05;100.00
45541;BME280;31265;49.680;8.608;2023-01-28T12:48:39;101668.78;;;3.17;100.00
45541;BME280;31265;49.680;8.608;2023-01-28T12:51:14;101661.09;;;3.21;100.00
45541;BME280;31265;49.680;8.608;2023-01-28T12:53:46;101668.16;;;3.07;100.00
45541;BME280;31265;49.680;8.608;2023-01-28T12:56:19;101671.19;;;3.09;100.00
45541;BME280;31265;49.680;8.608;2023-01-28T12:58:54;101663.25;;;3.32;100.00
45541;BME280;31265;49.680;8.608;2023-01-28T13:01:28;101665.09;;;3.20;100.00
45541;BME280;31265;49.680;8.608;2023-01-28T13:04:05;101667.94;;;3.11;100.00
45541;BME280;31265;49.680;8.608;2023-01-28T13:06:40;101658.75;;;3.14;100.00
45541;BME280;31265;49.680;8.608;2023-01-28T13:09:16;101653.59;;;3.01;100.00
45541;BME280;31265;49.680;8.608;2023-01-28T13:11:47;101655.69;;;2.91;100.00
45541;BME280;31265;49.680;8.608;2023-01-28T13:14:17;101665.53;;;2.98;100.00
45541;BME280;31265;49.680;8.608;2023-01-28T13:16:48;101655.94;;;2.73;100.00
45541;BME280;31265;49.680;8.608;2023-01-28T13:19:23;101668.00;;;2.81;100.00
45541;BME280;31265;49.680;8.608;2023-01-28T13:21:52;101668.00;;;2.81;100.00
45541;BME280;31265;49.680;8.608;2023-01-28T13:24:30;101671.53;;;2.67;100.00